sensor_id;sensor_type;location;lat;lon;timestamp;pressure;altitude;pressure_sealevel;temperature;humidity
76044;BME280;64740;34.694;33.088;2023-03-01T00:01:59;1040.7;;;21.6;28.9
76044;BME280;64740;34.694;33.088;2023-03-01T00:06:17;1040.7;;;21.6;29
76044;BME280;64740;34.694;33.088;2023-03-01T00:12:01;1040.7;;;21.7;29.5
76044;BME280;64740;34.694;33.088;2023-03-01T00:16:51;1040.6;;;21.7;29.4
76044;BME280;64740;34.694;33.088;2023-03-01T00:22:01;1040.6;;;21.7;28.9
76044;BME280;64740;34.694;33.088;2023-03-01T00:26:18;1040.5;;;21.7;28.9
76044;BME280;64740;34.694;33.088;2023-03-01T00:31:18;1040.5;;;21.8;29.1
76044;BME280;64740;34.694;33.088;2023-03-01T00:36:59;1040.4;;;21.8;29.1
76044;BME280;64740;34.694;33.088;2023-03-01T00:41:51;1040.3;;;21.9;29.1
76044;BME280;64740;34.694;33.088;2023-03-01T00:47:01;1040.3;;;21.8;28.7
76044;BME280;64740;34.694;33.088;2023-03-01T00:51:39;1040.3;;;21.8;29.1
76044;BME280;64740;34.694;33.088;2023-03-01T00:56:47;1040.2;;;21.8;28.6
76044;BME280;64740;34.694;33.088;2023-03-01T01:01:59;1040.2;;;21.8;29
76044;BME280;64740;34.694;33.088;2023-03-01T01:06:51;1040.2;;;21.8;29.1
76044;BME280;64740;34.694;33.088;2023-03-01T01:11:31;1040.2;;;21.8;28.7
76044;BME280;64740;34.694;33.088;2023-03-01T01:16:18;1040.2;;;21.8;29.2
76044;BME280;64740;34.694;33.088;2023-03-01T01:21:25;1040.1;;;21.8;28.8
76044;BME280;64740;34.694;33.088;2023-03-01T01:26:37;1040.1;;;21.8;29
76044;BME280;64740;34.694;33.088;2023-03-01T01:31:59;1040.1;;;21.8;28.9
76044;BME280;64740;34.694;33.088;2023-03-01T01:36:52;1040.1;;;21.8;28.9
76044;BME280;64740;34.694;33.088;2023-03-01T01:41:37;1040.1;;;21.7;28.7
76044;BME280;64740;34.694;33.088;2023-03-01T01:46:21;1040.1;;;21.7;28.5
76044;BME280;64740;34.694;33.088;2023-03-01T01:51:39;1040.1;;;21.7;28.8
76044;BME280;64740;34.694;33.088;2023-03-01T01:57:02;1040.1;;;21.7;29
76044;BME280;64740;34.694;33.088;2023-03-01T02:01:25;1040.1;;;21.7;28.6
76044;BME280;64740;34.694;33.088;2023-03-01T02:06:41;1040.1;;;21.7;28.4
76044;BME280;64740;34.694;33.088;2023-03-01T02:11:25;1040.2;;;21.7;28.6
76044;BME280;64740;34.694;33.088;2023-03-01T02:16:39;1040.2;;;21.7;28.5
76044;BME280;64740;34.694;33.088;2023-03-01T02:22:02;1040.2;;;21.7;28.6
76044;BME280;64740;34.694;33.088;2023-03-01T02:26:52;1040.2;;;21.7;28.7
76044;BME280;64740;34.694;33.088;2023-03-01T02:31:18;1040.1;;;21.7;28.6
76044;BME280;64740;34.694;33.088;2023-03-01T02:37:03;1040;;;21.6;28.3
76044;BME280;64740;34.694;33.088;2023-03-01T02:41:48;1040;;;21.6;28.1
76044;BME280;64740;34.694;33.088;2023-03-01T02:46:52;1040;;;21.5;28.1
76044;BME280;64740;34.694;33.088;2023-03-01T02:51:54;1040;;;21.5;28.6
76044;BME280;64740;34.694;33.088;2023-03-01T02:56:39;1040;;;21.5;28.2
76044;BME280;64740;34.694;33.088;2023-03-01T03:01:26;1040;;;21.5;28.4
76044;BME280;64740;34.694;33.088;2023-03-01T03:06:31;1040;;;21.5;27.9
76044;BME280;64740;34.694;33.088;2023-03-01T03:12:01;1039.9;;;21.4;27.6
76044;BME280;64740;34.694;33.088;2023-03-01T03:16:40;1040;;;21.3;27.9
76044;BME280;64740;34.694;33.088;2023-03-01T03:22:01;1039.9;;;21.3;28.1
76044;BME280;64740;34.694;33.088;2023-03-01T03:26:17;1039.9;;;21.4;28.4
76044;BME280;64740;34.694;33.088;2023-03-01T03:31:25;1039.9;;;21.4;28
76044;BME280;64740;34.694;33.088;2023-03-01T03:37:01;1039.9;;;21.3;28.1
76044;BME280;64740;34.694;33.088;2023-03-01T03:41:51;1039.9;;;21.3;28.3
76044;BME280;64740;34.694;33.088;2023-03-01T03:46:39;1039.9;;;21.3;28.2
76044;BME280;64740;34.694;33.088;2023-03-01T03:51:29;1040;;;21.3;28.4
76044;BME280;64740;34.694;33.088;2023-03-01T03:56:37;1040;;;21.2;28.3
76044;BME280;64740;34.694;33.088;2023-03-01T04:01:59;1040;;;21;28.2
76044;BME280;64740;34.694;33.088;2023-03-01T04:06:49;1040;;;20.9;28.3
76044;BME280;64740;34.694;33.088;2023-03-01T04:11:39;1040;;;20.8;28.4
76044;BME280;64740;34.694;33.088;2023-03-01T04:16:17;1040;;;20.7;28.3
76044;BME280;64740;34.694;33.088;2023-03-01T04:21:39;1040;;;20.6;28.7
76044;BME280;64740;34.694;33.088;2023-03-01T04:27:01;1040;;;20.6;28.3
76044;BME280;64740;34.694;33.088;2023-03-01T04:31:51;1040;;;20.5;28.3
76044;BME280;64740;34.694;33.088;2023-03-01T04:36:35;1040;;;20.4;28.4
76044;BME280;64740;34.694;33.088;2023-03-01T04:41:51;1040;;;20.3;28.5
76044;BME280;64740;34.694;33.088;2023-03-01T04:46:37;1040;;;20.3;28.6
76044;BME280;64740;34.694;33.088;2023-03-01T04:52:01;1040.1;;;20.3;28.8
76044;BME280;64740;34.694;33.088;2023-03-01T04:56:49;1040;;;20.4;28.8
76044;BME280;64740;34.694;33.088;2023-03-01T05:01:23;1040;;;20.5;29.1
76044;BME280;64740;34.694;33.088;2023-03-01T05:06:37;1040.1;;;20.7;29
76044;BME280;64740;34.694;33.088;2023-03-01T05:11:17;1040.1;;;20.7;28.6
76044;BME280;64740;34.694;33.088;2023-03-01T05:16:59;1040.2;;;20.8;28.7
76044;BME280;64740;34.694;33.088;2023-03-01T05:21:35;1040.2;;;20.9;28.8
76044;BME280;64740;34.694;33.088;2023-03-01T05:26:57;1040.3;;;21;28.9
76044;BME280;64740;34.694;33.088;2023-03-01T05:31:29;1040.3;;;21.1;29.3
76044;BME280;64740;34.694;33.088;2023-03-01T05:36:35;1040.3;;;21.3;29.4
76044;BME280;64740;34.694;33.088;2023-03-01T05:42:00;1040.3;;;21.5;29.4
76044;BME280;64740;34.694;33.088;2023-03-01T05:46:51;1040.3;;;21.7;29.3
76044;BME280;64740;34.694;33.088;2023-03-01T05:51:59;1040.3;;;21.8;29.2
76044;BME280;64740;34.694;33.088;2023-03-01T05:56:27;1040.4;;;22;29.3
76044;BME280;64740;34.694;33.088;2023-03-01T06:01:37;1040.4;;;22.1;29.5
76044;BME280;64740;34.694;33.088;2023-03-01T06:06:59;1040.5;;;22.3;29.4
76044;BME280;64740;34.694;33.088;2023-03-01T06:11:51;1040.4;;;22.4;29.4
76044;BME280;64740;34.694;33.088;2023-03-01T06:17:01;1040.4;;;22.6;29.2
76044;BME280;64740;34.694;33.088;2023-03-01T06:21:17;1040.5;;;22.8;28.9
76044;BME280;64740;34.694;33.088;2023-03-01T06:26:37;1040.5;;;23;29
76044;BME280;64740;34.694;33.088;2023-03-01T06:31:49;1040.6;;;23.2;28.8
76044;BME280;64740;34.694;33.088;2023-03-01T06:36:51;1040.6;;;23.4;28.4
76044;BME280;64740;34.694;33.088;2023-03-01T06:41:59;1040.6;;;23.7;28.5
76044;BME280;64740;34.694;33.088;2023-03-01T06:46:17;1040.7;;;23.9;28.7
76044;BME280;64740;34.694;33.088;2023-03-01T06:51:37;1040.7;;;24.1;28.8
76044;BME280;64740;34.694;33.088;2023-03-01T06:56:59;1040.7;;;24.3;29.2
76044;BME280;64740;34.694;33.088;2023-03-01T07:01:51;1040.6;;;24.5;29.1
76044;BME280;64740;34.694;33.088;2023-03-01T07:07:03;1040.6;;;24.7;29.4
76044;BME280;64740;34.694;33.088;2023-03-01T07:11:17;1040.6;;;24.8;29.7
76044;BME280;64740;34.694;33.088;2023-03-01T07:16:31;1040.6;;;24.9;30.3
76044;BME280;64740;34.694;33.088;2023-03-01T07:22:05;1040.7;;;25;30.9
76044;BME280;64740;34.694;33.088;2023-03-01T07:26:55;1040.6;;;25.2;31.1
76044;BME280;64740;34.694;33.088;2023-03-01T07:32:05;1040.6;;;25.3;31.4
76044;BME280;64740;34.694;33.088;2023-03-01T07:36:17;1040.6;;;25.4;31.5
76044;BME280;64740;34.694;33.088;2023-03-01T07:41:17;1040.6;;;25.6;30.9
76044;BME280;64740;34.694;33.088;2023-03-01T07:47:05;1040.6;;;25.6;30.4
76044;BME280;64740;34.694;33.088;2023-03-01T07:51:55;1040.6;;;25.7;31.8
76044;BME280;64740;34.694;33.088;2023-03-01T07:57:05;1040.6;;;25.7;32.5
76044;BME280;64740;34.694;33.088;2023-03-01T08:01:29;1040.6;;;25.7;33.2
76044;BME280;64740;34.694;33.088;2023-03-01T08:06:35;1040.6;;;25.7;34.1
76044;BME280;64740;34.694;33.088;2023-03-01T08:12:03;1040.6;;;25.7;34.1
76044;BME280;64740;34.694;33.088;2023-03-01T08:16:53;1040.6;;;25.6;34.2
76044;BME280;64740;34.694;33.088;2023-03-01T08:22:03;1040.5;;;25.6;34.2
76044;BME280;64740;34.694;33.088;2023-03-01T08:26:27;1040.5;;;25.6;34.4
76044;BME280;64740;34.694;33.088;2023-03-01T08:31:26;1040.4;;;25.7;34.5
76044;BME280;64740;34.694;33.088;2023-03-01T08:37:05;1040.3;;;25.7;34.8
76044;BME280;64740;34.694;33.088;2023-03-01T08:41:53;1040.3;;;25.7;34.8
76044;BME280;64740;34.694;33.088;2023-03-01T08:47:05;1040.4;;;25.8;35.5
76044;BME280;64740;34.694;33.088;2023-03-01T08:51:29;1040.4;;;25.8;36.1
76044;BME280;64740;34.694;33.088;2023-03-01T08:56:23;1040.4;;;25.9;36.7
76044;BME280;64740;34.694;33.088;2023-03-01T09:02:03;1040.4;;;25.9;36.8
76044;BME280;64740;34.694;33.088;2023-03-01T09:06:53;1040.3;;;25.9;36.7
76044;BME280;64740;34.694;33.088;2023-03-01T09:12:03;1040.3;;;26;36.5
76044;BME280;64740;34.694;33.088;2023-03-01T09:16:18;1040.3;;;26;35.7
76044;BME280;64740;34.694;33.088;2023-03-01T09:21:51;1040.3;;;26;36.2
76044;BME280;64740;34.694;33.088;2023-03-01T09:26:18;1040.3;;;26;35.9
76044;BME280;64740;34.694;33.088;2023-03-01T09:31:39;1040.3;;;26.1;35.5
76044;BME280;64740;34.694;33.088;2023-03-01T09:36:49;1040.2;;;26.1;35.1
76044;BME280;64740;34.694;33.088;2023-03-01T09:41:43;1040.2;;;26.2;35.2
76044;BME280;64740;34.694;33.088;2023-03-01T09:47:03;1040.2;;;26.2;35.5
76044;BME280;64740;34.694;33.088;2023-03-01T09:51:29;1040.2;;;26.2;35.6
76044;BME280;64740;34.694;33.088;2023-03-01T09:56:19;1040.2;;;26.2;35.1
76044;BME280;64740;34.694;33.088;2023-03-01T10:01:50;1040.2;;;26.3;34.4
76044;BME280;64740;34.694;33.088;2023-03-01T10:06:25;1040.1;;;26.4;33.6
76044;BME280;64740;34.694;33.088;2023-03-01T10:11:59;1039.9;;;26.4;33.3
76044;BME280;64740;34.694;33.088;2023-03-01T10:16:28;1039.8;;;26.5;32.8
76044;BME280;64740;34.694;33.088;2023-03-01T10:21:43;1039.7;;;26.6;32.2
76044;BME280;64740;34.694;33.088;2023-03-01T10:26:53;1039.7;;;26.7;31.7
76044;BME280;64740;34.694;33.088;2023-03-01T10:31:18;1039.6;;;26.9;31.8
76044;BME280;64740;34.694;33.088;2023-03-01T10:37:08;1039.6;;;27;32.3
76044;BME280;64740;34.694;33.088;2023-03-01T10:41:17;1039.5;;;27.1;32.1
76044;BME280;64740;34.694;33.088;2023-03-01T10:46:39;1039.4;;;27.2;32
76044;BME280;64740;34.694;33.088;2023-03-01T10:51:50;1039.3;;;27.4;32.4
76044;BME280;64740;34.694;33.088;2023-03-01T10:56:17;1039.2;;;27.5;32.9
76044;BME280;64740;34.694;33.088;2023-03-01T11:01:49;1039.2;;;27.6;32
76044;BME280;64740;34.694;33.088;2023-03-01T11:06:20;1039.1;;;27.8;31
76044;BME280;64740;34.694;33.088;2023-03-01T11:11:21;1039.1;;;28;30.7
76044;BME280;64740;34.694;33.088;2023-03-01T11:16:58;1039;;;28.3;30.7
76044;BME280;64740;34.694;33.088;2023-03-01T11:21:17;1039;;;28.5;31.1
76044;BME280;64740;34.694;33.088;2023-03-01T11:27:04;1038.9;;;28.8;31.4
76044;BME280;64740;34.694;33.088;2023-03-01T11:31:29;1038.8;;;29.1;31.2
76044;BME280;64740;34.694;33.088;2023-03-01T11:36:39;1038.7;;;29.4;30.7
76044;BME280;64740;34.694;33.088;2023-03-01T11:41:52;1038.7;;;29.7;30.3
76044;BME280;64740;34.694;33.088;2023-03-01T11:46:38;1038.6;;;30;29.9
76044;BME280;64740;34.694;33.088;2023-03-01T11:52:02;1038.5;;;30.2;29.8
76044;BME280;64740;34.694;33.088;2023-03-01T11:56:43;1038.4;;;30.4;29.6
76044;BME280;64740;34.694;33.088;2023-03-01T12:01:30;1038.4;;;30.6;29.6
76044;BME280;64740;34.694;33.088;2023-03-01T12:06:50;1038.3;;;30.8;29.6
76044;BME280;64740;34.694;33.088;2023-03-01T12:11:28;1038.3;;;31;30
76044;BME280;64740;34.694;33.088;2023-03-01T12:16:39;1038.3;;;31.2;30.3
76044;BME280;64740;34.694;33.088;2023-03-01T12:22:06;1038.2;;;31.3;30.4
76044;BME280;64740;34.694;33.088;2023-03-01T12:26:29;1038.1;;;31.4;30.3
76044;BME280;64740;34.694;33.088;2023-03-01T12:36:24;1038.1;;;31.5;30.2
76044;BME280;64740;34.694;33.088;2023-03-01T12:42:02;1038.1;;;31.2;30.5
76044;BME280;64740;34.694;33.088;2023-03-01T12:46:28;1038;;;31.1;30.7
76044;BME280;64740;34.694;33.088;2023-03-01T12:51:35;1038;;;31;30.6
76044;BME280;64740;34.694;33.088;2023-03-01T12:56:49;1038;;;31;30.5
76044;BME280;64740;34.694;33.088;2023-03-01T13:01:32;1037.9;;;31;30.8
76044;BME280;64740;34.694;33.088;2023-03-01T13:07:10;1037.9;;;30.9;30.7
76044;BME280;64740;34.694;33.088;2023-03-01T13:11:18;1037.8;;;31;31
76044;BME280;64740;34.694;33.088;2023-03-01T13:16:40;1037.8;;;31.1;31.1
76044;BME280;64740;34.694;33.088;2023-03-01T13:22:25;1037.8;;;31.3;31.5
76044;BME280;64740;34.694;33.088;2023-03-01T13:27:08;1037.8;;;31.4;31.9
76044;BME280;64740;34.694;33.088;2023-03-01T13:48:52;1037.7;;;31.5;32.5
76044;BME280;64740;34.694;33.088;2023-03-01T14:09:05;1037.6;;;30.5;33.6
76044;BME280;64740;34.694;33.088;2023-03-01T14:14:00;1037.6;;;30.3;33.7
76044;BME280;64740;34.694;33.088;2023-03-01T14:19:14;1037.5;;;30;32.9
76044;BME280;64740;34.694;33.088;2023-03-01T14:23:30;1037.5;;;29.8;32.7
76044;BME280;64740;34.694;33.088;2023-03-01T14:28:38;1037.4;;;29.5;32.9
76044;BME280;64740;34.694;33.088;2023-03-01T14:34:00;1037.5;;;29.4;33.3
76044;BME280;64740;34.694;33.088;2023-03-01T14:38:30;1037.5;;;29.3;34.1
76044;BME280;64740;34.694;33.088;2023-03-01T14:44:15;1037.6;;;29.1;34.8
76044;BME280;64740;34.694;33.088;2023-03-01T14:49:03;1037.6;;;28.9;35.3
76044;BME280;64740;34.694;33.088;2023-03-01T14:53:38;1037.7;;;28.6;35.8
76044;BME280;64740;34.694;33.088;2023-03-01T14:59:02;1037.8;;;28.4;36.1
76044;BME280;64740;34.694;33.088;2023-03-01T15:03:50;1037.8;;;28.1;36.7
76044;BME280;64740;34.694;33.088;2023-03-01T15:09:14;1037.8;;;27.7;37.3
76044;BME280;64740;34.694;33.088;2023-03-01T15:14:05;1037.9;;;27.4;37.7
76044;BME280;64740;34.694;33.088;2023-03-01T15:18:28;1037.9;;;27;38.1
76044;BME280;64740;34.694;33.088;2023-03-01T15:24:03;1038;;;26.7;38.7
76044;BME280;64740;34.694;33.088;2023-03-01T15:28:42;1038;;;26.4;38.7
76044;BME280;64740;34.694;33.088;2023-03-01T15:34:21;1038;;;26.1;37.9
76044;BME280;64740;34.694;33.088;2023-03-01T15:39:02;1038;;;25.9;36.7
76044;BME280;64740;34.694;33.088;2023-03-01T15:43:44;1038;;;25.7;36.4
76044;BME280;64740;34.694;33.088;2023-03-01T15:49:02;1038;;;25.5;36.3
76044;BME280;64740;34.694;33.088;2023-03-01T15:53:40;1038;;;25.3;36.2
76044;BME280;64740;34.694;33.088;2023-03-01T15:59:12;1038;;;25.2;36
76044;BME280;64740;34.694;33.088;2023-03-01T16:04:00;1038;;;25.1;35.9
76044;BME280;64740;34.694;33.088;2023-03-01T16:08:40;1038;;;24.9;36
76044;BME280;64740;34.694;33.088;2023-03-01T16:14:02;1038.1;;;24.8;36.5
76044;BME280;64740;34.694;33.088;2023-03-01T16:18:52;1038.1;;;24.8;36.9
76044;BME280;64740;34.694;33.088;2023-03-01T16:24:14;1038.1;;;24.7;37.4
76044;BME280;64740;34.694;33.088;2023-03-01T16:29:02;1038.1;;;24.6;37.9
76044;BME280;64740;34.694;33.088;2023-03-01T16:33:50;1038.1;;;24.6;37
76044;BME280;64740;34.694;33.088;2023-03-01T16:39:02;1038.1;;;24.5;35.1
76044;BME280;64740;34.694;33.088;2023-03-01T16:43:38;1038.2;;;24.4;33.9
76044;BME280;64740;34.694;33.088;2023-03-01T16:49:14;1038.2;;;24.3;33.4
76044;BME280;64740;34.694;33.088;2023-03-01T16:54:02;1038.2;;;24.1;33.1
76044;BME280;64740;34.694;33.088;2023-03-01T16:58:38;1038.2;;;24;33
76044;BME280;64740;34.694;33.088;2023-03-01T17:04:02;1038.3;;;23.9;32.7
76044;BME280;64740;34.694;33.088;2023-03-01T17:09:02;1038.3;;;23.8;32.7
76044;BME280;64740;34.694;33.088;2023-03-01T17:14:00;1038.3;;;23.6;32.7
76044;BME280;64740;34.694;33.088;2023-03-01T17:18:52;1038.3;;;23.4;32.8
76044;BME280;64740;34.694;33.088;2023-03-01T17:23:42;1038.3;;;23.3;33.2
76044;BME280;64740;34.694;33.088;2023-03-01T17:29:04;1038.3;;;23.2;33.1
76044;BME280;64740;34.694;33.088;2023-03-01T17:34:14;1038.3;;;23.2;33.2
76044;BME280;64740;34.694;33.088;2023-03-01T17:39:00;1038.3;;;23.1;33.2
76044;BME280;64740;34.694;33.088;2023-03-01T17:43:52;1038.3;;;23;33.2
76044;BME280;64740;34.694;33.088;2023-03-01T17:48:28;1038.3;;;22.9;33.2
76044;BME280;64740;34.694;33.088;2023-03-01T17:54:14;1038.2;;;22.8;33.2
76044;BME280;64740;34.694;33.088;2023-03-01T17:58:40;1038.2;;;22.8;33.2
76044;BME280;64740;34.694;33.088;2023-03-01T18:04:02;1038.2;;;22.9;33
76044;BME280;64740;34.694;33.088;2023-03-01T18:08:54;1038.2;;;23;33
76044;BME280;64740;34.694;33.088;2023-03-01T18:13:40;1038.1;;;23;33.1
76044;BME280;64740;34.694;33.088;2023-03-01T18:19:16;1038.1;;;23.1;32.7
76044;BME280;64740;34.694;33.088;2023-03-01T18:23:52;1038.1;;;23.1;32.6
76044;BME280;64740;34.694;33.088;2023-03-01T18:29:02;1038.1;;;23.1;32.7
76044;BME280;64740;34.694;33.088;2023-03-01T18:33:28;1038.1;;;23.1;32.9
76044;BME280;64740;34.694;33.088;2023-03-01T18:38:42;1038.2;;;23.1;32.8
76044;BME280;64740;34.694;33.088;2023-03-01T18:44:16;1038.3;;;23;32.7
76044;BME280;64740;34.694;33.088;2023-03-01T18:49:13;1038.3;;;22.9;32.8
76044;BME280;64740;34.694;33.088;2023-03-01T18:54:02;1038.3;;;22.8;32.9
76044;BME280;64740;34.694;33.088;2023-03-01T18:58:54;1038.4;;;22.7;33.1
76044;BME280;64740;34.694;33.088;2023-03-01T19:03:52;1038.4;;;22.6;33.3
76044;BME280;64740;34.694;33.088;2023-03-01T19:09:14;1038.4;;;22.5;33.5
76044;BME280;64740;34.694;33.088;2023-03-01T19:13:54;1038.4;;;22.4;33.6
76044;BME280;64740;34.694;33.088;2023-03-01T19:19:03;1038.4;;;22.4;33.6
76044;BME280;64740;34.694;33.088;2023-03-01T19:23:54;1038.5;;;22.3;33.6
76044;BME280;64740;34.694;33.088;2023-03-01T19:28:40;1038.5;;;22.2;33.3
76044;BME280;64740;34.694;33.088;2023-03-01T19:34:14;1038.6;;;22.2;33.3
76044;BME280;64740;34.694;33.088;2023-03-01T19:38:38;1038.6;;;22.2;33.2
76044;BME280;64740;34.694;33.088;2023-03-01T19:44:00;1038.6;;;22.1;33.3
76044;BME280;64740;34.694;33.088;2023-03-01T19:48:50;1038.6;;;22;33.2
76044;BME280;64740;34.694;33.088;2023-03-01T19:53:38;1038.6;;;21.9;33
76044;BME280;64740;34.694;33.088;2023-03-01T19:59:14;1038.5;;;21.8;32.9
76044;BME280;64740;34.694;33.088;2023-03-01T20:03:40;1038.5;;;21.7;32.8
76044;BME280;64740;34.694;33.088;2023-03-01T20:08:58;1038.5;;;21.7;32.6
76044;BME280;64740;34.694;33.088;2023-03-01T20:13:52;1038.5;;;21.6;32.6
76044;BME280;64740;34.694;33.088;2023-03-01T20:18:28;1038.5;;;21.5;32.6
76044;BME280;64740;34.694;33.088;2023-03-01T20:24:14;1038.5;;;21.4;32.6
76044;BME280;64740;34.694;33.088;2023-03-01T20:28:54;1038.5;;;21.3;32.5
76044;BME280;64740;34.694;33.088;2023-03-01T20:33:40;1038.5;;;21.2;32.4
76044;BME280;64740;34.694;33.088;2023-03-01T20:38:28;1038.5;;;21.2;32.3
76044;BME280;64740;34.694;33.088;2023-03-01T20:43:28;1038.6;;;21.2;32.2
76044;BME280;64740;34.694;33.088;2023-03-01T20:49:14;1038.5;;;21.1;32.1
76044;BME280;64740;34.694;33.088;2023-03-01T20:53:52;1038.5;;;21.1;31.9
76044;BME280;64740;34.694;33.088;2023-03-01T20:59:02;1038.5;;;21;31.9
76044;BME280;64740;34.694;33.088;2023-03-01T21:04:06;1038.4;;;20.9;31.9
76044;BME280;64740;34.694;33.088;2023-03-01T21:08:38;1038.4;;;20.8;32
76044;BME280;64740;34.694;33.088;2023-03-01T21:13:48;1038.4;;;20.8;32.1
76044;BME280;64740;34.694;33.088;2023-03-01T21:18:42;1038.3;;;20.8;31.9
76044;BME280;64740;34.694;33.088;2023-03-01T21:24:16;1038.4;;;20.7;32.1
76044;BME280;64740;34.694;33.088;2023-03-01T21:29:06;1038.3;;;20.8;31.8
76044;BME280;64740;34.694;33.088;2023-03-01T21:33:42;1038.3;;;20.8;31.9
76044;BME280;64740;34.694;33.088;2023-03-01T21:38:29;1038.4;;;20.8;31.9
76044;BME280;64740;34.694;33.088;2023-03-01T21:43:40;1038.4;;;20.8;31.8
76044;BME280;64740;34.694;33.088;2023-03-01T21:48:30;1038.3;;;20.9;31.9
76044;BME280;64740;34.694;33.088;2023-03-01T21:54:04;1038.3;;;20.9;31.7
76044;BME280;64740;34.694;33.088;2023-03-01T21:58:40;1038.3;;;20.9;31.5
76044;BME280;64740;34.694;33.088;2023-03-01T22:03:50;1038.3;;;20.8;31.6
76044;BME280;64740;34.694;33.088;2023-03-01T22:08:40;1038.3;;;20.7;31.7
76044;BME280;64740;34.694;33.088;2023-03-01T22:14:14;1038.2;;;20.7;31.5
76044;BME280;64740;34.694;33.088;2023-03-01T22:19:04;1038.3;;;20.7;31.2
76044;BME280;64740;34.694;33.088;2023-03-01T22:23:28;1038.3;;;20.7;31.2
76044;BME280;64740;34.694;33.088;2023-03-01T22:28:48;1038.3;;;20.6;31.2
76044;BME280;64740;34.694;33.088;2023-03-01T22:33:28;1038.2;;;20.5;31.1
76044;BME280;64740;34.694;33.088;2023-03-01T22:39:12;1038.2;;;20.4;31.2
76044;BME280;64740;34.694;33.088;2023-03-01T22:44:02;1038.1;;;20.3;31.2
76044;BME280;64740;34.694;33.088;2023-03-01T22:48:40;1038.2;;;20.4;31.1
76044;BME280;64740;34.694;33.088;2023-03-01T22:53:36;1038.2;;;20.4;31.6
76044;BME280;64740;34.694;33.088;2023-03-01T22:58:38;1038.2;;;20.4;31.2
76044;BME280;64740;34.694;33.088;2023-03-01T23:04:14;1038.1;;;20.5;31.4
76044;BME280;64740;34.694;33.088;2023-03-01T23:09:04;1038.1;;;20.5;31.2
76044;BME280;64740;34.694;33.088;2023-03-01T23:13:48;1038.1;;;20.5;31.1
76044;BME280;64740;34.694;33.088;2023-03-01T23:18:48;1038.1;;;20.6;31
76044;BME280;64740;34.694;33.088;2023-03-01T23:23:28;1038;;;20.6;30.9
76044;BME280;64740;34.694;33.088;2023-03-01T23:29:14;1038;;;20.6;30.7
76044;BME280;64740;34.694;33.088;2023-03-01T23:33:42;1037.9;;;20.6;30.5
76044;BME280;64740;34.694;33.088;2023-03-01T23:38:48;1037.9;;;20.6;30.7
76044;BME280;64740;34.694;33.088;2023-03-01T23:43:36;1037.8;;;20.5;31
76044;BME280;64740;34.694;33.088;2023-03-01T23:48:38;1037.7;;;20.4;31
76044;BME280;64740;34.694;33.088;2023-03-01T23:54:14;1037.7;;;20.4;30.7
76044;BME280;64740;34.694;33.088;2023-03-01T23:59:04;1037.6;;;20.3;30.9
